EKVJ/STA METAR and TAF weather

Enter ICAO airport designator
Station Type Date Time Source
EKVJ METAR 2022/06/28 13:50 UTC NOAA

EKVJ 281350Z 24010KT 9999 FEW020 19/14 Q1021


Station Type Date Time Source
EKVJ Decoded METAR 2022/06/28 13:50 UTC NOAA

Stauning Lufthavn, Denmark (EKVJ) 56-00N 008-21E 5M
Jun 28, 2022 - 09:50 AM EDT / 2022.06.28 1350 UTC
Wind: from the WSW (240 degrees) at 12 MPH (10 KT):0
Visibility: greater than 7 mile(s):0
Sky conditions: mostly clear
Temperature: 66 F (19 C)
Dew Point: 57 F (14 C)
Relative Humidity: 72%
Pressure (altimeter): 30.15 in. Hg (1021 hPa)
ob: EKVJ 281350Z 24010KT 9999 FEW020 19/14 Q1021
cycle: 14

Station Type Date Time Source
EKVJ TAF UTC NOAA

Error!

Example: see airport list